sensor_id;sensor_type;location;lat;lon;timestamp;pressure;altitude;pressure_sealevel;temperature;humidity
38616;BME280;24370;51.986;4.666;2023-11-21T00:00:44;101143.75;;;16.92;48.54
38616;BME280;24370;51.986;4.666;2023-11-21T00:03:11;101137.06;;;17.08;47.97
38616;BME280;24370;51.986;4.666;2023-11-21T00:05:40;101147.19;;;16.64;49.41
38616;BME280;24370;51.986;4.666;2023-11-21T00:08:07;101147.09;;;16.07;51.24
38616;BME280;24370;51.986;4.666;2023-11-21T00:10:33;101150.44;;;16.44;49.79
38616;BME280;24370;51.986;4.666;2023-11-21T00:13:00;101155.47;;;16.82;49.16
38616;BME280;24370;51.986;4.666;2023-11-21T00:15:27;101154.50;;;16.84;49.25
38616;BME280;24370;51.986;4.666;2023-11-21T00:17:53;101157.50;;;17.02;48.71
38616;BME280;24370;51.986;4.666;2023-11-21T00:20:18;101157.16;;;17.12;48.58
38616;BME280;24370;51.986;4.666;2023-11-21T00:22:43;101159.47;;;17.23;48.25
38616;BME280;24370;51.986;4.666;2023-11-21T00:25:09;101158.38;;;17.02;49.24
38616;BME280;24370;51.986;4.666;2023-11-21T00:27:35;101156.22;;;17.15;49.66
38616;BME280;24370;51.986;4.666;2023-11-21T00:30:01;101159.63;;;17.45;49.33
38616;BME280;24370;51.986;4.666;2023-11-21T00:32:27;101161.25;;;17.23;49.58
38616;BME280;24370;51.986;4.666;2023-11-21T00:34:52;101153.31;;;17.50;49.06
38616;BME280;24370;51.986;4.666;2023-11-21T00:37:17;101161.47;;;17.42;49.06
38616;BME280;24370;51.986;4.666;2023-11-21T00:39:43;101162.91;;;17.52;48.51
38616;BME280;24370;51.986;4.666;2023-11-21T00:42:08;101164.28;;;17.64;48.44
38616;BME280;24370;51.986;4.666;2023-11-21T00:44:37;101161.59;;;17.66;48.49
38616;BME280;24370;51.986;4.666;2023-11-21T00:47:03;101163.44;;;17.89;48.06
38616;BME280;24370;51.986;4.666;2023-11-21T00:49:28;101161.75;;;17.86;48.21
38616;BME280;24370;51.986;4.666;2023-11-21T00:51:54;101160.75;;;17.63;48.74
38616;BME280;24370;51.986;4.666;2023-11-21T00:54:19;101166.94;;;17.89;48.71
38616;BME280;24370;51.986;4.666;2023-11-21T00:56:44;101167.19;;;17.81;49.06
38616;BME280;24370;51.986;4.666;2023-11-21T00:59:12;101165.38;;;17.84;49.26
38616;BME280;24370;51.986;4.666;2023-11-21T01:01:37;101167.03;;;17.86;48.47
38616;BME280;24370;51.986;4.666;2023-11-21T01:04:03;101172.72;;;18.01;48.74
38616;BME280;24370;51.986;4.666;2023-11-21T01:06:28;101185.38;;;18.16;48.73
38616;BME280;24370;51.986;4.666;2023-11-21T01:08:55;101180.00;;;18.67;47.88
38616;BME280;24370;51.986;4.666;2023-11-21T01:11:20;101175.91;;;18.10;48.46
38616;BME280;24370;51.986;4.666;2023-11-21T01:13:46;101179.25;;;18.16;48.67
38616;BME280;24370;51.986;4.666;2023-11-21T01:16:11;101180.22;;;18.38;48.23
38616;BME280;24370;51.986;4.666;2023-11-21T01:18:37;101183.06;;;18.56;47.93
38616;BME280;24370;51.986;4.666;2023-11-21T01:21:03;101180.75;;;18.70;47.75
38616;BME280;24370;51.986;4.666;2023-11-21T01:23:28;101178.28;;;18.65;47.31
38616;BME280;24370;51.986;4.666;2023-11-21T01:25:56;101193.72;;;18.54;47.93
38616;BME280;24370;51.986;4.666;2023-11-21T01:28:21;101190.22;;;18.54;47.86
38616;BME280;24370;51.986;4.666;2023-11-21T01:30:48;101188.94;;;18.40;48.17
38616;BME280;24370;51.986;4.666;2023-11-21T01:33:14;101199.06;;;18.53;48.39
38616;BME280;24370;51.986;4.666;2023-11-21T01:35:41;101210.91;;;18.66;47.89
38616;BME280;24370;51.986;4.666;2023-11-21T01:38:06;101217.63;;;18.75;48.07
38616;BME280;24370;51.986;4.666;2023-11-21T01:40:33;101215.44;;;19.10;47.43
38616;BME280;24370;51.986;4.666;2023-11-21T01:42:58;101215.31;;;18.91;47.24
38616;BME280;24370;51.986;4.666;2023-11-21T01:45:24;101217.06;;;19.14;47.58
38616;BME280;24370;51.986;4.666;2023-11-21T01:47:50;101220.50;;;19.16;47.22
38616;BME280;24370;51.986;4.666;2023-11-21T01:50:16;101223.22;;;19.14;47.16
38616;BME280;24370;51.986;4.666;2023-11-21T01:52:47;101227.94;;;19.06;47.81
38616;BME280;24370;51.986;4.666;2023-11-21T01:55:14;101230.84;;;19.00;47.20
38616;BME280;24370;51.986;4.666;2023-11-21T01:57:43;101231.06;;;18.94;47.60
38616;BME280;24370;51.986;4.666;2023-11-21T02:00:09;101233.66;;;18.95;47.54
38616;BME280;24370;51.986;4.666;2023-11-21T02:02:44;101238.22;;;18.92;47.74
38616;BME280;24370;51.986;4.666;2023-11-21T02:05:17;101243.94;;;18.56;48.39
38616;BME280;24370;51.986;4.666;2023-11-21T02:07:43;101233.41;;;18.30;49.26
38616;BME280;24370;51.986;4.666;2023-11-21T02:10:10;101235.44;;;18.71;48.47
38616;BME280;24370;51.986;4.666;2023-11-21T02:12:40;101239.59;;;19.02;47.92
38616;BME280;24370;51.986;4.666;2023-11-21T02:15:06;101236.63;;;18.88;48.52
38616;BME280;24370;51.986;4.666;2023-11-21T02:17:35;101242.50;;;18.96;48.49
38616;BME280;24370;51.986;4.666;2023-11-21T02:20:01;101239.69;;;18.52;48.78
38616;BME280;24370;51.986;4.666;2023-11-21T02:22:30;101228.94;;;19.04;48.13
38616;BME280;24370;51.986;4.666;2023-11-21T02:24:56;101239.66;;;19.23;48.16
38616;BME280;24370;51.986;4.666;2023-11-21T02:27:23;101240.47;;;19.25;47.36
38616;BME280;24370;51.986;4.666;2023-11-21T02:29:49;101242.94;;;19.07;48.07
38616;BME280;24370;51.986;4.666;2023-11-21T02:32:14;101239.09;;;19.14;48.04
38616;BME280;24370;51.986;4.666;2023-11-21T02:34:42;101245.88;;;19.22;47.77
38616;BME280;24370;51.986;4.666;2023-11-21T02:37:08;101243.78;;;19.30;47.85
38616;BME280;24370;51.986;4.666;2023-11-21T02:39:34;101240.03;;;19.58;47.32
38616;BME280;24370;51.986;4.666;2023-11-21T02:42:00;101249.22;;;19.27;48.12
38616;BME280;24370;51.986;4.666;2023-11-21T02:44:26;101251.09;;;19.25;48.32
38616;BME280;24370;51.986;4.666;2023-11-21T02:46:51;101251.22;;;18.98;48.56
38616;BME280;24370;51.986;4.666;2023-11-21T02:49:16;101251.56;;;19.35;48.22
38616;BME280;24370;51.986;4.666;2023-11-21T02:51:42;101260.16;;;19.18;48.51
38616;BME280;24370;51.986;4.666;2023-11-21T02:54:07;101251.81;;;19.28;48.48
38616;BME280;24370;51.986;4.666;2023-11-21T02:56:33;101260.78;;;19.46;47.82
38616;BME280;24370;51.986;4.666;2023-11-21T02:59:00;101247.84;;;19.61;47.38
38616;BME280;24370;51.986;4.666;2023-11-21T03:01:26;101249.44;;;19.65;47.41
38616;BME280;24370;51.986;4.666;2023-11-21T03:03:53;101262.28;;;19.54;47.88
38616;BME280;24370;51.986;4.666;2023-11-21T03:06:19;101257.34;;;19.66;46.97
38616;BME280;24370;51.986;4.666;2023-11-21T03:08:45;101265.53;;;19.60;47.54
38616;BME280;24370;51.986;4.666;2023-11-21T03:11:10;101260.94;;;19.43;48.30
38616;BME280;24370;51.986;4.666;2023-11-21T03:13:35;101264.97;;;19.52;47.98
38616;BME280;24370;51.986;4.666;2023-11-21T03:16:01;101263.06;;;19.78;47.61
38616;BME280;24370;51.986;4.666;2023-11-21T03:18:26;101264.47;;;19.64;47.42
38616;BME280;24370;51.986;4.666;2023-11-21T03:20:54;101272.03;;;19.53;47.48
38616;BME280;24370;51.986;4.666;2023-11-21T03:23:20;101274.47;;;19.13;48.40
38616;BME280;24370;51.986;4.666;2023-11-21T03:25:45;101259.94;;;19.68;47.43
38616;BME280;24370;51.986;4.666;2023-11-21T03:28:11;101268.81;;;19.23;48.48
38616;BME280;24370;51.986;4.666;2023-11-21T03:30:36;101270.41;;;19.27;48.44
38616;BME280;24370;51.986;4.666;2023-11-21T03:33:01;101273.25;;;19.66;47.42
38616;BME280;24370;51.986;4.666;2023-11-21T03:35:27;101273.72;;;19.76;47.56
38616;BME280;24370;51.986;4.666;2023-11-21T03:37:53;101279.34;;;19.46;47.73
38616;BME280;24370;51.986;4.666;2023-11-21T03:40:18;101283.25;;;19.60;47.76
38616;BME280;24370;51.986;4.666;2023-11-21T03:42:44;101286.28;;;19.05;48.79
38616;BME280;24370;51.986;4.666;2023-11-21T03:45:09;101281.84;;;19.29;48.38
38616;BME280;24370;51.986;4.666;2023-11-21T03:47:35;101290.63;;;18.82;49.43
38616;BME280;24370;51.986;4.666;2023-11-21T03:50:00;101289.25;;;18.72;49.58
38616;BME280;24370;51.986;4.666;2023-11-21T03:52:26;101291.06;;;18.70;49.91
38616;BME280;24370;51.986;4.666;2023-11-21T03:54:52;101296.38;;;18.95;49.65
38616;BME280;24370;51.986;4.666;2023-11-21T03:57:17;101301.47;;;19.23;48.98
38616;BME280;24370;51.986;4.666;2023-11-21T03:59:43;101303.66;;;19.12;48.98
38616;BME280;24370;51.986;4.666;2023-11-21T04:02:09;101310.72;;;19.35;48.65
38616;BME280;24370;51.986;4.666;2023-11-21T04:04:35;101308.72;;;19.64;47.98
38616;BME280;24370;51.986;4.666;2023-11-21T04:07:00;101310.72;;;19.35;48.69
38616;BME280;24370;51.986;4.666;2023-11-21T04:09:26;101311.97;;;19.48;48.74
38616;BME280;24370;51.986;4.666;2023-11-21T04:11:52;101314.78;;;19.90;47.87
38616;BME280;24370;51.986;4.666;2023-11-21T04:14:18;101315.47;;;20.15;46.86
38616;BME280;24370;51.986;4.666;2023-11-21T04:16:43;101329.78;;;19.91;47.38
38616;BME280;24370;51.986;4.666;2023-11-21T04:19:08;101324.22;;;20.17;47.21
38616;BME280;24370;51.986;4.666;2023-11-21T04:21:40;101316.91;;;20.02;46.96
38616;BME280;24370;51.986;4.666;2023-11-21T04:24:06;101330.00;;;19.85;47.76
38616;BME280;24370;51.986;4.666;2023-11-21T04:26:31;101339.47;;;20.12;46.94
38616;BME280;24370;51.986;4.666;2023-11-21T04:28:57;101347.94;;;20.00;47.16
38616;BME280;24370;51.986;4.666;2023-11-21T04:31:22;101350.22;;;20.09;47.41
38616;BME280;24370;51.986;4.666;2023-11-21T04:33:48;101338.75;;;20.09;47.52
38616;BME280;24370;51.986;4.666;2023-11-21T04:36:13;101347.72;;;20.27;47.16
38616;BME280;24370;51.986;4.666;2023-11-21T04:38:39;101354.75;;;20.28;47.25
38616;BME280;24370;51.986;4.666;2023-11-21T04:41:04;101353.03;;;20.27;47.06
38616;BME280;24370;51.986;4.666;2023-11-21T04:43:30;101353.06;;;20.68;46.46
38616;BME280;24370;51.986;4.666;2023-11-21T04:45:55;101354.69;;;20.50;46.88
38616;BME280;24370;51.986;4.666;2023-11-21T04:48:20;101351.03;;;20.32;46.90
38616;BME280;24370;51.986;4.666;2023-11-21T04:50:46;101356.59;;;20.26;47.31
38616;BME280;24370;51.986;4.666;2023-11-21T04:53:11;101352.03;;;20.29;47.44
38616;BME280;24370;51.986;4.666;2023-11-21T04:55:40;101369.59;;;20.11;47.92
38616;BME280;24370;51.986;4.666;2023-11-21T04:58:05;101378.00;;;20.00;48.40
38616;BME280;24370;51.986;4.666;2023-11-21T05:00:30;101375.91;;;19.87;48.64
38616;BME280;24370;51.986;4.666;2023-11-21T05:02:56;101386.56;;;20.07;47.84
38616;BME280;24370;51.986;4.666;2023-11-21T05:05:21;101387.00;;;20.19;48.15
38616;BME280;24370;51.986;4.666;2023-11-21T05:07:47;101396.56;;;20.23;48.02
38616;BME280;24370;51.986;4.666;2023-11-21T05:10:14;101393.63;;;20.49;47.29
38616;BME280;24370;51.986;4.666;2023-11-21T05:12:41;101395.22;;;19.66;49.42
38616;BME280;24370;51.986;4.666;2023-11-21T05:15:08;101403.38;;;19.62;51.03
38616;BME280;24370;51.986;4.666;2023-11-21T05:17:40;101383.00;;;19.62;49.54
38616;BME280;24370;51.986;4.666;2023-11-21T05:20:10;101391.16;;;19.10;50.90
38616;BME280;24370;51.986;4.666;2023-11-21T05:22:36;101389.44;;;19.09;51.88
38616;BME280;24370;51.986;4.666;2023-11-21T05:25:03;101396.84;;;19.71;51.50
38616;BME280;24370;51.986;4.666;2023-11-21T05:27:29;101413.53;;;18.76;52.60
38616;BME280;24370;51.986;4.666;2023-11-21T05:29:56;101407.75;;;19.39;51.57
38616;BME280;24370;51.986;4.666;2023-11-21T05:32:21;101410.41;;;19.39;51.27
38616;BME280;24370;51.986;4.666;2023-11-21T05:34:48;101413.69;;;19.92;49.81
38616;BME280;24370;51.986;4.666;2023-11-21T05:37:13;101410.19;;;20.13;49.19
38616;BME280;24370;51.986;4.666;2023-11-21T05:39:38;101413.91;;;20.09;49.56
38616;BME280;24370;51.986;4.666;2023-11-21T05:42:04;101421.34;;;20.22;49.04
38616;BME280;24370;51.986;4.666;2023-11-21T05:44:30;101419.59;;;19.76;49.73
38616;BME280;24370;51.986;4.666;2023-11-21T05:46:55;101425.50;;;20.07;49.10
38616;BME280;24370;51.986;4.666;2023-11-21T05:49:20;101428.59;;;19.72;49.81
38616;BME280;24370;51.986;4.666;2023-11-21T05:51:47;101429.75;;;19.65;50.34
38616;BME280;24370;51.986;4.666;2023-11-21T05:54:12;101435.41;;;19.56;50.80
38616;BME280;24370;51.986;4.666;2023-11-21T05:56:37;101442.09;;;19.19;51.76
38616;BME280;24370;51.986;4.666;2023-11-21T05:59:03;101448.78;;;19.29;50.86
38616;BME280;24370;51.986;4.666;2023-11-21T06:01:28;101449.13;;;19.20;51.47
38616;BME280;24370;51.986;4.666;2023-11-21T06:03:54;101452.28;;;19.06;51.90
38616;BME280;24370;51.986;4.666;2023-11-21T06:06:22;101455.81;;;19.30;50.90
38616;BME280;24370;51.986;4.666;2023-11-21T06:08:49;101461.94;;;19.56;50.58
38616;BME280;24370;51.986;4.666;2023-11-21T06:11:15;101465.59;;;19.04;51.52
38616;BME280;24370;51.986;4.666;2023-11-21T06:13:41;101464.56;;;19.32;51.61
38616;BME280;24370;51.986;4.666;2023-11-21T06:16:07;101465.63;;;19.52;51.11
38616;BME280;24370;51.986;4.666;2023-11-21T06:18:32;101475.28;;;19.76;50.66
38616;BME280;24370;51.986;4.666;2023-11-21T06:20:58;101471.72;;;20.01;49.87
38616;BME280;24370;51.986;4.666;2023-11-21T06:23:25;101479.19;;;20.13;49.66
38616;BME280;24370;51.986;4.666;2023-11-21T06:25:51;101477.66;;;20.30;49.11
38616;BME280;24370;51.986;4.666;2023-11-21T06:28:16;101482.16;;;20.28;49.30
38616;BME280;24370;51.986;4.666;2023-11-21T06:30:43;101476.94;;;20.03;50.01
38616;BME280;24370;51.986;4.666;2023-11-21T06:33:09;101480.16;;;19.89;49.98
38616;BME280;24370;51.986;4.666;2023-11-21T06:35:34;101482.25;;;20.03;49.83
38616;BME280;24370;51.986;4.666;2023-11-21T06:38:00;101479.31;;;20.10;49.91
38616;BME280;24370;51.986;4.666;2023-11-21T06:40:25;101486.47;;;20.08;49.86
38616;BME280;24370;51.986;4.666;2023-11-21T06:42:51;101484.84;;;20.26;49.31
38616;BME280;24370;51.986;4.666;2023-11-21T06:45:16;101504.25;;;20.06;48.88
38616;BME280;24370;51.986;4.666;2023-11-21T06:47:42;101501.47;;;19.62;49.61
38616;BME280;24370;51.986;4.666;2023-11-21T06:50:08;101503.31;;;19.36;49.80
38616;BME280;24370;51.986;4.666;2023-11-21T06:52:33;101517.41;;;19.60;49.43
38616;BME280;24370;51.986;4.666;2023-11-21T06:54:58;101521.75;;;19.63;49.60
38616;BME280;24370;51.986;4.666;2023-11-21T06:57:25;101519.69;;;19.71;49.11
38616;BME280;24370;51.986;4.666;2023-11-21T06:59:50;101515.19;;;19.49;49.58
38616;BME280;24370;51.986;4.666;2023-11-21T07:02:16;101534.50;;;19.28;50.68
38616;BME280;24370;51.986;4.666;2023-11-21T07:04:44;101535.66;;;19.21;50.48
38616;BME280;24370;51.986;4.666;2023-11-21T07:07:10;101538.50;;;18.04;54.17
38616;BME280;24370;51.986;4.666;2023-11-21T07:09:36;101535.97;;;18.58;53.63
38616;BME280;24370;51.986;4.666;2023-11-21T07:12:01;101535.56;;;18.70;53.17
38616;BME280;24370;51.986;4.666;2023-11-21T07:14:29;101543.09;;;18.27;54.22
38616;BME280;24370;51.986;4.666;2023-11-21T07:16:54;101542.22;;;18.55;54.02
38616;BME280;24370;51.986;4.666;2023-11-21T07:19:20;101546.34;;;18.07;55.30
38616;BME280;24370;51.986;4.666;2023-11-21T07:21:47;101542.38;;;17.92;56.00
38616;BME280;24370;51.986;4.666;2023-11-21T07:24:15;101550.38;;;18.47;54.51
38616;BME280;24370;51.986;4.666;2023-11-21T07:26:41;101561.84;;;18.20;54.91
38616;BME280;24370;51.986;4.666;2023-11-21T07:29:06;101563.84;;;18.11;55.56
38616;BME280;24370;51.986;4.666;2023-11-21T07:31:32;101571.97;;;18.92;53.55
38616;BME280;24370;51.986;4.666;2023-11-21T07:34:00;101577.53;;;17.96;56.74
38616;BME280;24370;51.986;4.666;2023-11-21T07:36:26;101574.78;;;17.99;55.97
38616;BME280;24370;51.986;4.666;2023-11-21T07:38:51;101587.47;;;17.55;57.78
38616;BME280;24370;51.986;4.666;2023-11-21T07:41:18;101583.19;;;18.13;56.76
38616;BME280;24370;51.986;4.666;2023-11-21T07:43:44;101579.84;;;18.65;54.40
38616;BME280;24370;51.986;4.666;2023-11-21T07:46:10;101591.19;;;18.40;54.95
38616;BME280;24370;51.986;4.666;2023-11-21T07:48:41;101596.13;;;18.23;56.36
38616;BME280;24370;51.986;4.666;2023-11-21T07:51:11;101603.84;;;18.01;57.14
38616;BME280;24370;51.986;4.666;2023-11-21T07:53:38;101610.81;;;17.70;57.89
38616;BME280;24370;51.986;4.666;2023-11-21T07:56:05;101609.41;;;17.24;59.60
38616;BME280;24370;51.986;4.666;2023-11-21T07:58:31;101610.81;;;17.70;58.76
38616;BME280;24370;51.986;4.666;2023-11-21T08:00:59;101616.97;;;17.71;59.17
38616;BME280;24370;51.986;4.666;2023-11-21T08:03:25;101630.41;;;17.63;58.96
38616;BME280;24370;51.986;4.666;2023-11-21T08:05:57;101625.25;;;18.23;57.28
38616;BME280;24370;51.986;4.666;2023-11-21T08:08:23;101628.25;;;18.40;57.35
38616;BME280;24370;51.986;4.666;2023-11-21T08:10:49;101631.66;;;17.83;57.75
38616;BME280;24370;51.986;4.666;2023-11-21T08:13:25;101627.78;;;18.56;56.10
38616;BME280;24370;51.986;4.666;2023-11-21T08:15:50;101637.31;;;18.02;57.33
38616;BME280;24370;51.986;4.666;2023-11-21T08:18:19;101640.00;;;18.60;56.22
38616;BME280;24370;51.986;4.666;2023-11-21T08:20:44;101646.94;;;18.04;57.46
38616;BME280;24370;51.986;4.666;2023-11-21T08:23:13;101642.03;;;18.52;55.96
38616;BME280;24370;51.986;4.666;2023-11-21T08:25:41;101651.81;;;17.54;59.25
38616;BME280;24370;51.986;4.666;2023-11-21T08:28:07;101657.81;;;17.60;59.71
38616;BME280;24370;51.986;4.666;2023-11-21T08:30:32;101657.28;;;17.80;60.00
38616;BME280;24370;51.986;4.666;2023-11-21T08:32:58;101646.25;;;17.97;59.16
38616;BME280;24370;51.986;4.666;2023-11-21T08:35:24;101656.81;;;18.29;58.88
38616;BME280;24370;51.986;4.666;2023-11-21T08:37:53;101659.22;;;17.74;59.54
38616;BME280;24370;51.986;4.666;2023-11-21T08:40:19;101655.19;;;18.25;59.37
38616;BME280;24370;51.986;4.666;2023-11-21T08:42:46;101662.47;;;17.51;61.54
38616;BME280;24370;51.986;4.666;2023-11-21T08:45:11;101660.00;;;19.00;57.70
38616;BME280;24370;51.986;4.666;2023-11-21T08:47:38;101665.84;;;18.52;58.97
38616;BME280;24370;51.986;4.666;2023-11-21T08:50:05;101655.88;;;18.60;57.60
38616;BME280;24370;51.986;4.666;2023-11-21T08:52:33;101658.63;;;18.57;57.85
38616;BME280;24370;51.986;4.666;2023-11-21T08:54:58;101672.16;;;18.47;59.27
38616;BME280;24370;51.986;4.666;2023-11-21T08:57:28;101671.16;;;17.89;61.58
38616;BME280;24370;51.986;4.666;2023-11-21T08:59:53;101670.78;;;18.94;58.28
38616;BME280;24370;51.986;4.666;2023-11-21T09:02:23;101678.16;;;18.23;59.17
38616;BME280;24370;51.986;4.666;2023-11-21T09:04:51;101680.69;;;18.27;59.61
38616;BME280;24370;51.986;4.666;2023-11-21T09:07:20;101684.84;;;17.70;62.66
38616;BME280;24370;51.986;4.666;2023-11-21T09:09:46;101681.69;;;18.23;61.81
38616;BME280;24370;51.986;4.666;2023-11-21T09:12:11;101689.53;;;17.95;60.63
38616;BME280;24370;51.986;4.666;2023-11-21T09:14:37;101696.25;;;18.38;60.08
38616;BME280;24370;51.986;4.666;2023-11-21T09:17:03;101710.19;;;18.13;61.16
38616;BME280;24370;51.986;4.666;2023-11-21T09:19:29;101709.41;;;18.71;59.03
38616;BME280;24370;51.986;4.666;2023-11-21T09:21:54;101708.47;;;19.30;57.03
38616;BME280;24370;51.986;4.666;2023-11-21T09:24:20;101717.59;;;18.93;57.44
38616;BME280;24370;51.986;4.666;2023-11-21T09:26:45;101721.94;;;18.96;57.80
38616;BME280;24370;51.986;4.666;2023-11-21T09:29:10;101727.69;;;18.79;57.90
38616;BME280;24370;51.986;4.666;2023-11-21T09:31:36;101724.13;;;18.19;60.77
38616;BME280;24370;51.986;4.666;2023-11-21T09:34:01;101737.13;;;17.95;61.32
38616;BME280;24370;51.986;4.666;2023-11-21T09:36:27;101742.34;;;18.29;59.69
38616;BME280;24370;51.986;4.666;2023-11-21T09:38:55;101749.97;;;17.74;61.85
38616;BME280;24370;51.986;4.666;2023-11-21T09:41:34;101748.09;;;18.45;60.00
38616;BME280;24370;51.986;4.666;2023-11-21T09:44:08;101758.28;;;17.95;60.15
38616;BME280;24370;51.986;4.666;2023-11-21T09:46:37;101764.69;;;17.49;61.67
38616;BME280;24370;51.986;4.666;2023-11-21T09:49:09;101760.56;;;18.72;58.74
38616;BME280;24370;51.986;4.666;2023-11-21T09:51:39;101766.38;;;18.85;57.55
38616;BME280;24370;51.986;4.666;2023-11-21T09:54:08;101769.69;;;18.93;57.23
38616;BME280;24370;51.986;4.666;2023-11-21T09:56:35;101790.00;;;18.61;58.04
38616;BME280;24370;51.986;4.666;2023-11-21T09:59:01;101776.75;;;19.22;55.26
38616;BME280;24370;51.986;4.666;2023-11-21T10:01:36;101785.22;;;19.60;54.58
38616;BME280;24370;51.986;4.666;2023-11-21T10:04:02;101786.06;;;18.76;56.39
38616;BME280;24370;51.986;4.666;2023-11-21T10:06:28;101795.41;;;18.89;56.63
38616;BME280;24370;51.986;4.666;2023-11-21T10:08:56;101799.78;;;18.59;56.43
38616;BME280;24370;51.986;4.666;2023-11-21T10:11:39;101807.63;;;17.60;60.06
38616;BME280;24370;51.986;4.666;2023-11-21T10:14:10;101811.63;;;18.45;58.48
38616;BME280;24370;51.986;4.666;2023-11-21T10:16:38;101830.28;;;18.72;56.78
38616;BME280;24370;51.986;4.666;2023-11-21T10:19:04;101832.03;;;18.07;58.89
38616;BME280;24370;51.986;4.666;2023-11-21T10:21:32;101827.69;;;17.67;60.59
38616;BME280;24370;51.986;4.666;2023-11-21T10:23:58;101830.13;;;18.12;58.34
38616;BME280;24370;51.986;4.666;2023-11-21T10:26:26;101846.03;;;18.45;57.08
38616;BME280;24370;51.986;4.666;2023-11-21T10:31:23;101854.44;;;17.55;60.88
38616;BME280;24370;51.986;4.666;2023-11-21T10:33:50;101853.09;;;18.10;58.27
38616;BME280;24370;51.986;4.666;2023-11-21T10:36:25;101849.56;;;18.11;57.91
38616;BME280;24370;51.986;4.666;2023-11-21T10:38:52;101859.56;;;17.61;59.41
38616;BME280;24370;51.986;4.666;2023-11-21T10:41:18;101867.34;;;17.67;59.07
38616;BME280;24370;51.986;4.666;2023-11-21T10:43:44;101876.63;;;17.48;59.95
38616;BME280;24370;51.986;4.666;2023-11-21T10:46:10;101872.69;;;18.03;58.76
38616;BME280;24370;51.986;4.666;2023-11-21T10:48:35;101881.03;;;17.47;60.26
38616;BME280;24370;51.986;4.666;2023-11-21T10:51:06;101878.47;;;18.54;56.81
38616;BME280;24370;51.986;4.666;2023-11-21T10:53:32;101878.84;;;18.05;58.00
38616;BME280;24370;51.986;4.666;2023-11-21T10:56:08;101886.09;;;17.95;59.30
38616;BME280;24370;51.986;4.666;2023-11-21T10:58:42;101884.84;;;18.45;57.86
38616;BME280;24370;51.986;4.666;2023-11-21T11:01:08;101886.16;;;17.55;61.30
38616;BME280;24370;51.986;4.666;2023-11-21T11:03:37;101887.13;;;17.88;60.67
38616;BME280;24370;51.986;4.666;2023-11-21T11:06:06;101898.50;;;17.53;60.64
38616;BME280;24370;51.986;4.666;2023-11-21T11:08:37;101900.41;;;17.48;61.24
38616;BME280;24370;51.986;4.666;2023-11-21T11:11:04;101888.81;;;17.92;60.65
38616;BME280;24370;51.986;4.666;2023-11-21T11:13:30;101896.38;;;17.70;59.72
38616;BME280;24370;51.986;4.666;2023-11-21T11:15:58;101897.19;;;17.33;61.34
38616;BME280;24370;51.986;4.666;2023-11-21T11:18:29;101895.00;;;18.29;58.46
38616;BME280;24370;51.986;4.666;2023-11-21T11:28:55;101890.09;;;18.48;56.22
38616;BME280;24370;51.986;4.666;2023-11-21T11:31:55;101893.03;;;19.03;54.58
38616;BME280;24370;51.986;4.666;2023-11-21T11:34:30;101888.03;;;18.25;55.83
38616;BME280;24370;51.986;4.666;2023-11-21T11:37:06;101897.31;;;18.74;54.79
38616;BME280;24370;51.986;4.666;2023-11-21T11:39:38;101891.75;;;18.18;57.50
38616;BME280;24370;51.986;4.666;2023-11-21T11:42:07;101892.66;;;18.51;56.64
38616;BME280;24370;51.986;4.666;2023-11-21T11:47:20;101898.63;;;18.25;56.86
38616;BME280;24370;51.986;4.666;2023-11-21T11:49:59;101897.41;;;18.71;56.30
38616;BME280;24370;51.986;4.666;2023-11-21T11:55:06;101920.41;;;17.19;59.55
38616;BME280;24370;51.986;4.666;2023-11-21T11:57:34;101908.56;;;18.50;55.85
38616;BME280;24370;51.986;4.666;2023-11-21T12:02:50;101914.84;;;18.45;56.46
38616;BME280;24370;51.986;4.666;2023-11-21T12:05:17;101925.94;;;19.26;54.63
38616;BME280;24370;51.986;4.666;2023-11-21T12:10:20;101936.66;;;18.90;54.96
38616;BME280;24370;51.986;4.666;2023-11-21T12:12:49;101940.72;;;19.03;55.42
38616;BME280;24370;51.986;4.666;2023-11-21T12:15:16;101940.75;;;18.69;55.71
38616;BME280;24370;51.986;4.666;2023-11-21T12:17:42;101944.91;;;18.77;55.28
38616;BME280;24370;51.986;4.666;2023-11-21T12:20:09;101940.19;;;19.22;54.57
38616;BME280;24370;51.986;4.666;2023-11-21T12:22:45;101945.94;;;18.37;55.79
38616;BME280;24370;51.986;4.666;2023-11-21T12:25:17;101955.31;;;19.18;54.25
38616;BME280;24370;51.986;4.666;2023-11-21T12:27:47;101958.75;;;18.89;55.04
38616;BME280;24370;51.986;4.666;2023-11-21T12:30:15;101952.69;;;18.51;55.26
38616;BME280;24370;51.986;4.666;2023-11-21T12:32:43;101958.28;;;17.60;59.20
38616;BME280;24370;51.986;4.666;2023-11-21T12:35:09;101953.59;;;18.13;56.44
38616;BME280;24370;51.986;4.666;2023-11-21T12:37:37;101960.31;;;18.27;57.37
38616;BME280;24370;51.986;4.666;2023-11-21T12:40:05;101972.28;;;18.76;54.73
38616;BME280;24370;51.986;4.666;2023-11-21T12:42:32;101970.28;;;19.19;54.07
38616;BME280;24370;51.986;4.666;2023-11-21T12:47:43;101966.31;;;18.34;55.89
38616;BME280;24370;51.986;4.666;2023-11-21T12:50:10;101972.56;;;18.67;54.76
38616;BME280;24370;51.986;4.666;2023-11-21T12:52:43;101974.88;;;18.07;55.35
38616;BME280;24370;51.986;4.666;2023-11-21T12:55:16;101975.16;;;18.33;56.37
38616;BME280;24370;51.986;4.666;2023-11-21T12:57:47;101982.50;;;17.82;56.92
38616;BME280;24370;51.986;4.666;2023-11-21T13:00:36;101991.88;;;17.55;58.14
38616;BME280;24370;51.986;4.666;2023-11-21T13:03:06;101997.03;;;17.61;57.79
38616;BME280;24370;51.986;4.666;2023-11-21T13:05:37;101995.56;;;17.48;59.15
38616;BME280;24370;51.986;4.666;2023-11-21T13:08:09;101988.22;;;18.03;57.57
38616;BME280;24370;51.986;4.666;2023-11-21T13:10:39;101991.47;;;18.52;55.66
38616;BME280;24370;51.986;4.666;2023-11-21T13:13:07;101992.97;;;18.62;54.48